Time;durP1;ratioP1;P1;durP2;ratioP2;P2;SDS_P1;SDS_P2;PMS_P1;PMS_P2;Temp;Humidity;BMP_temperature;BMP_pressure;BME280_temperature;BME280_humidity;BME280_pressure;Samples;Min_cycle;Max_cycle;Signal;HPM_P1;HPM_P2
2022/04/08 00:01:45;;;;;;;12.85;1.80;;;12.50;68.40;;;;;;5115342;27;20375;-67
2022/04/08 00:04:11;;;;;;;7.97;1.50;;;12.30;67.90;;;;;;5135519;27;20182;-66
2022/04/08 00:06:37;;;;;;;5.03;1.23;;;12.20;68.60;;;;;;5133869;28;20038;-66
2022/04/08 00:09:03;;;;;;;7.28;1.73;;;12.10;68.80;;;;;;5136172;27;20106;-66
2022/04/08 00:11:29;;;;;;;10.77;1.50;;;12.10;68.60;;;;;;5114570;28;20039;-67
2022/04/08 00:13:55;;;;;;;6.38;1.42;;;12.00;68.80;;;;;;5098887;28;20379;-67
2022/04/08 00:16:21;;;;;;;4.72;1.40;;;11.90;69.20;;;;;;5123457;27;20026;-67
2022/04/08 00:18:48;;;;;;;7.43;1.35;;;11.80;69.30;;;;;;5137302;27;20050;-67
2022/04/08 00:21:14;;;;;;;4.57;1.20;;;11.80;69.70;;;;;;5137387;27;20149;-67
2022/04/08 00:23:42;;;;;;;4.72;1.50;;;11.70;70.10;;;;;;5137204;27;20034;-66
2022/04/08 00:26:08;;;;;;;4.25;1.02;;;11.70;70.50;;;;;;5116632;27;20056;-66
2022/04/08 00:28:34;;;;;;;4.55;1.00;;;11.70;70.50;;;;;;5130168;27;20442;-67
2022/04/08 00:31:01;;;;;;;6.20;1.55;;;11.70;70.80;;;;;;5139330;27;20483;-67
2022/04/08 00:33:27;;;;;;;9.77;1.42;;;11.70;71.00;;;;;;5137756;27;20079;-66
2022/04/08 00:35:53;;;;;;;9.57;1.23;;;11.70;71.20;;;;;;5137312;27;20498;-66
2022/04/08 00:38:18;;;;;;;9.38;1.70;;;11.70;71.10;;;;;;5136623;27;20123;-67
2022/04/08 00:40:44;;;;;;;8.60;1.60;;;11.70;71.40;;;;;;5118043;27;20062;-67
2022/04/08 00:43:18;;;;;;;6.50;1.60;;;11.70;71.40;;;;;;5137183;27;20102;-66
2022/04/08 00:45:44;;;;;;;4.57;1.15;;;11.70;70.90;;;;;;5137051;27;20019;-67
2022/04/08 00:48:11;;;;;;;8.25;1.60;;;11.70;70.90;;;;;;5118745;27;20031;-66
2022/04/08 00:50:44;;;;;;;8.65;2.13;;;11.70;70.90;;;;;;5118484;27;20407;-67
2022/04/08 00:53:10;;;;;;;5.10;1.33;;;11.70;70.50;;;;;;5118188;27;20024;-66
2022/04/08 00:55:37;;;;;;;11.27;1.80;;;11.70;70.30;;;;;;5118292;27;20041;-67
2022/04/08 00:58:04;;;;;;;7.95;1.63;;;11.70;70.50;;;;;;5136277;27;20031;-67
2022/04/08 01:00:38;;;;;;;7.10;1.58;;;11.70;70.30;;;;;;5116163;28;20027;-68
2022/04/08 01:03:05;;;;;;;9.02;2.05;;;11.60;69.40;;;;;;5106545;27;20047;-67
2022/04/08 01:05:34;;;;;;;16.33;1.55;;;11.60;68.60;;;;;;5136593;27;20019;-67
2022/04/08 01:08:01;;;;;;;8.82;1.45;;;11.70;68.80;;;;;;5136749;27;20023;-67
2022/04/08 01:10:27;;;;;;;5.38;1.48;;;11.70;69.00;;;;;;5136105;27;20031;-67
2022/04/08 01:12:53;;;;;;;8.65;1.83;;;11.80;69.30;;;;;;5117279;27;20424;-67
2022/04/08 01:15:21;;;;;;;7.88;1.20;;;11.80;69.20;;;;;;5136310;27;20328;-67
2022/04/08 01:17:47;;;;;;;8.57;1.73;;;11.80;69.00;;;;;;5097670;28;20463;-67
2022/04/08 01:20:14;;;;;;;8.40;1.98;;;11.90;69.00;;;;;;5096280;28;20045;-67
2022/04/08 01:22:41;;;;;;;15.93;1.58;;;12.00;68.90;;;;;;5115236;28;20035;-67
2022/04/08 01:25:08;;;;;;;4.43;1.25;;;12.00;69.00;;;;;;5115589;28;20057;-67
2022/04/08 01:27:35;;;;;;;6.03;1.08;;;12.10;68.90;;;;;;5096967;28;20034;-68
2022/04/08 01:30:01;;;;;;;6.55;1.60;;;12.10;68.80;;;;;;5115285;28;20028;-67
2022/04/08 01:32:27;;;;;;;4.18;1.30;;;12.10;68.20;;;;;;5130282;27;20031;-67
2022/04/08 01:34:53;;;;;;;7.63;1.70;;;12.10;68.20;;;;;;5109971;27;20102;-66
2022/04/08 01:37:22;;;;;;;9.50;1.30;;;12.20;68.30;;;;;;5137985;27;20026;-67
2022/04/08 01:39:48;;;;;;;2.83;1.05;;;12.20;68.30;;;;;;5135439;27;20043;-69
2022/04/08 01:42:14;;;;;;;6.13;1.58;;;12.20;68.50;;;;;;5081739;28;20032;-67
2022/04/08 01:44:40;;;;;;;8.93;1.67;;;12.30;68.60;;;;;;5084711;28;20027;-67
2022/04/08 01:47:06;;;;;;;5.00;1.13;;;12.30;68.80;;;;;;5096503;28;20043;-68
2022/04/08 01:49:33;;;;;;;5.22;1.30;;;12.30;68.90;;;;;;5097269;28;20034;-69
2022/04/08 01:51:59;;;;;;;6.63;1.40;;;12.30;69.20;;;;;;5108366;27;20038;-67
2022/04/08 01:54:25;;;;;;;6.80;1.20;;;12.30;69.70;;;;;;5136038;27;20027;-67
2022/04/08 01:56:50;;;;;;;6.57;1.50;;;12.30;70.00;;;;;;5133330;27;20080;-66
2022/04/08 01:59:16;;;;;;;12.45;1.40;;;12.30;69.90;;;;;;5115155;28;20030;-66
2022/04/08 02:01:42;;;;;;;6.88;1.42;;;12.30;69.40;;;;;;5096779;28;20455;-66
2022/04/08 02:04:08;;;;;;;10.23;1.30;;;12.30;69.20;;;;;;5113763;28;20084;-66
2022/04/08 02:06:40;;;;;;;13.73;2.00;;;12.30;69.30;;;;;;5114544;28;20024;-66
2022/04/08 02:09:07;;;;;;;6.20;1.33;;;12.20;68.60;;;;;;5114971;28;20026;-67
2022/04/08 02:11:34;;;;;;;8.00;1.83;;;12.20;68.60;;;;;;5114277;28;20143;-66
2022/04/08 02:14:00;;;;;;;4.30;1.20;;;12.20;68.50;;;;;;5114399;28;20046;-69
2022/04/08 02:16:26;;;;;;;6.05;1.27;;;12.20;68.50;;;;;;5096459;28;20383;-68
2022/04/08 02:18:51;;;;;;;4.95;1.35;;;12.20;68.40;;;;;;5114670;28;20028;-67
2022/04/08 02:21:19;;;;;;;5.53;1.27;;;12.20;68.50;;;;;;5114637;28;20089;-68
2022/04/08 02:23:47;;;;;;;5.25;1.52;;;12.20;68.50;;;;;;5114318;28;20027;-68
2022/04/08 02:26:14;;;;;;;7.35;1.27;;;12.20;68.60;;;;;;5096230;28;20028;-68
2022/04/08 02:28:40;;;;;;;10.40;2.00;;;12.20;68.60;;;;;;5100145;28;20025;-65
2022/04/08 02:31:06;;;;;;;7.93;1.60;;;12.20;68.50;;;;;;5095883;28;20040;-66
2022/04/08 02:33:32;;;;;;;7.53;1.73;;;12.20;68.40;;;;;;5113422;28;20107;-67
2022/04/08 02:35:58;;;;;;;6.45;2.38;;;12.20;68.50;;;;;;5095921;28;20034;-66
2022/04/08 02:38:24;;;;;;;7.00;1.50;;;12.20;68.50;;;;;;5095888;28;20031;-66
2022/04/08 02:40:49;;;;;;;5.20;1.40;;;12.20;68.30;;;;;;5131646;27;20058;-66
2022/04/08 02:43:15;;;;;;;4.70;1.33;;;12.20;68.30;;;;;;5134242;27;20019;-66
2022/04/08 02:45:41;;;;;;;13.38;1.73;;;12.20;68.20;;;;;;5134151;27;20027;-66
2022/04/08 02:48:07;;;;;;;6.50;1.67;;;12.20;67.80;;;;;;5116181;27;20355;-67
2022/04/08 02:50:33;;;;;;;14.15;3.28;;;12.20;67.70;;;;;;5134331;27;20035;-66
2022/04/08 02:52:59;;;;;;;8.85;1.85;;;12.20;67.60;;;;;;5115891;27;20515;-67
2022/04/08 02:55:25;;;;;;;9.05;1.83;;;12.20;67.30;;;;;;5133244;27;20027;-69
2022/04/08 02:57:51;;;;;;;6.90;1.98;;;12.10;67.10;;;;;;5134401;27;20079;-67
2022/04/08 03:00:19;;;;;;;8.38;2.03;;;12.10;67.10;;;;;;5115335;27;20019;-66
2022/04/08 03:02:46;;;;;;;10.55;1.92;;;12.10;67.00;;;;;;5115374;27;20031;-67
2022/04/08 03:05:13;;;;;;;6.97;1.48;;;12.10;67.20;;;;;;5116026;27;20023;-66
2022/04/08 03:07:39;;;;;;;5.78;1.70;;;12.10;67.70;;;;;;5116025;27;20485;-67
2022/04/08 03:10:08;;;;;;;5.90;1.23;;;12.10;66.20;;;;;;5115864;27;20027;-66
2022/04/08 03:12:34;;;;;;;8.68;1.30;;;12.10;65.60;;;;;;5115581;27;20035;-66
2022/04/08 03:15:01;;;;;;;5.10;1.35;;;12.10;65.20;;;;;;5133749;27;20034;-67
2022/04/08 03:17:27;;;;;;;7.00;1.40;;;12.10;65.20;;;;;;5115830;27;20030;-67
2022/04/08 03:19:53;;;;;;;5.25;1.42;;;12.10;65.60;;;;;;5134371;27;20064;-67
2022/04/08 03:22:22;;;;;;;8.45;1.30;;;12.10;65.70;;;;;;5134270;27;20106;-67
2022/04/08 03:24:48;;;;;;;6.35;1.70;;;12.10;64.80;;;;;;5115426;27;20455;-67
2022/04/08 03:27:14;;;;;;;4.50;1.23;;;12.10;65.00;;;;;;5132921;27;20068;-67
2022/04/08 03:29:40;;;;;;;8.50;2.42;;;12.10;65.30;;;;;;5113561;28;20020;-67
2022/04/08 03:32:06;;;;;;;6.90;1.88;;;12.10;64.80;;;;;;5124527;28;20049;-66
2022/04/08 03:34:33;;;;;;;9.90;2.05;;;12.10;64.70;;;;;;5115196;28;20023;-67
2022/04/08 03:36:59;;;;;;;7.32;2.00;;;12.10;65.10;;;;;;5134040;28;20019;-66
2022/04/08 03:39:25;;;;;;;5.55;1.02;;;12.10;64.50;;;;;;5112891;28;20048;-69
2022/04/08 03:41:51;;;;;;;6.80;1.38;;;12.10;63.80;;;;;;5115345;27;20043;-67
2022/04/08 03:44:18;;;;;;;2.75;1.20;;;12.10;63.70;;;;;;5136796;27;20122;-69
2022/04/08 03:46:45;;;;;;;7.38;1.75;;;12.10;64.20;;;;;;5118997;27;20065;-67
2022/04/08 03:49:14;;;;;;;7.60;2.65;;;12.10;63.50;;;;;;5138182;27;20031;-67
2022/04/08 03:51:46;;;;;;;4.43;1.60;;;12.20;64.00;;;;;;5137997;27;20110;-68
2022/04/08 03:54:13;;;;;;;10.75;2.13;;;12.20;63.20;;;;;;5137914;27;20123;-66
2022/04/08 03:56:43;;;;;;;2.78;1.17;;;12.20;62.50;;;;;;5119523;27;20023;-67
2022/04/08 03:59:10;;;;;;;6.25;1.30;;;12.20;62.30;;;;;;5119470;27;20027;-67
2022/04/08 04:01:36;;;;;;;8.65;1.48;;;12.10;61.60;;;;;;5119456;27;20031;-68
2022/04/08 04:04:03;;;;;;;5.40;1.67;;;12.10;61.50;;;;;;5118736;27;20038;-67
2022/04/08 04:06:29;;;;;;;4.10;1.10;;;12.00;61.70;;;;;;5137667;27;20023;-68
2022/04/08 04:08:55;;;;;;;5.07;1.20;;;11.90;61.40;;;;;;5118999;27;20047;-67
2022/04/08 04:11:21;;;;;;;5.28;1.50;;;11.80;61.70;;;;;;5137337;27;20058;-68
2022/04/08 04:13:48;;;;;;;4.88;0.95;;;11.70;62.70;;;;;;5137978;27;20023;-67
2022/04/08 04:16:14;;;;;;;4.57;1.80;;;11.50;62.30;;;;;;5137562;27;20030;-68
2022/04/08 04:18:40;;;;;;;7.38;1.00;;;11.40;61.60;;;;;;5137574;27;20038;-68
2022/04/08 04:21:05;;;;;;;4.25;1.58;;;11.40;62.60;;;;;;5119426;27;20031;-67
2022/04/08 04:23:34;;;;;;;5.78;1.17;;;11.30;62.80;;;;;;5118976;27;20035;-68
2022/04/08 04:26:06;;;;;;;2.95;0.90;;;11.30;63.10;;;;;;5118927;27;20161;-69
2022/04/08 04:28:32;;;;;;;3.08;0.93;;;11.30;63.50;;;;;;5115105;28;20039;-68
2022/04/08 04:31:03;;;;;;;4.45;0.98;;;11.30;63.50;;;;;;5127040;27;20035;-67
2022/04/08 04:33:29;;;;;;;5.70;1.40;;;11.20;63.40;;;;;;5118397;27;20371;-66
2022/04/08 04:35:58;;;;;;;4.68;1.40;;;11.20;63.20;;;;;;5100896;28;20116;-68
2022/04/08 04:38:24;;;;;;;4.95;1.10;;;11.20;63.80;;;;;;5126725;27;20031;-67
2022/04/08 04:40:50;;;;;;;2.70;1.02;;;11.20;64.00;;;;;;5136114;27;20153;-68
2022/04/08 04:43:16;;;;;;;6.18;1.95;;;11.20;64.40;;;;;;5118909;27;20051;-68
2022/04/08 04:45:43;;;;;;;9.02;1.80;;;11.20;63.60;;;;;;5137492;27;20389;-68
2022/04/08 04:48:11;;;;;;;7.80;1.40;;;11.20;63.70;;;;;;5118511;27;20110;-68
2022/04/08 04:50:40;;;;;;;8.05;1.77;;;11.20;63.10;;;;;;5136980;27;20038;-67
2022/04/08 04:53:07;;;;;;;9.68;2.00;;;11.20;63.30;;;;;;5131030;27;20042;-68
2022/04/08 04:55:33;;;;;;;6.63;1.48;;;11.30;63.30;;;;;;5116312;28;20410;-67
2022/04/08 04:57:59;;;;;;;3.92;0.98;;;11.30;62.40;;;;;;5098050;28;20023;-67
2022/04/08 05:00:25;;;;;;;6.90;1.67;;;11.40;63.10;;;;;;5116254;28;20084;-68
2022/04/08 05:02:51;;;;;;;4.72;1.13;;;11.40;63.20;;;;;;5123154;27;20034;-67
2022/04/08 05:05:17;;;;;;;3.08;1.17;;;11.50;62.20;;;;;;5136760;27;20034;-67
2022/04/08 05:07:43;;;;;;;6.53;1.20;;;11.50;61.70;;;;;;5117941;27;20123;-68
2022/04/08 05:10:09;;;;;;;8.57;1.25;;;11.50;61.60;;;;;;5136275;27;20102;-67
2022/04/08 05:12:36;;;;;;;3.70;1.40;;;11.60;61.90;;;;;;5136338;27;20031;-68
2022/04/08 05:15:07;;;;;;;4.40;1.80;;;11.60;61.90;;;;;;5136147;27;20031;-67
2022/04/08 05:17:36;;;;;;;7.15;1.17;;;11.60;62.00;;;;;;5136541;27;20039;-67
2022/04/08 05:20:06;;;;;;;4.25;1.15;;;11.60;61.80;;;;;;5117728;27;20034;-67
2022/04/08 05:22:33;;;;;;;5.93;1.50;;;11.70;61.60;;;;;;5136173;27;20034;-67
2022/04/08 05:24:59;;;;;;;4.82;1.17;;;11.80;61.80;;;;;;5136235;27;20080;-68
2022/04/08 05:27:26;;;;;;;3.15;1.10;;;11.80;61.70;;;;;;5136228;27;20392;-67
2022/04/08 05:29:52;;;;;;;6.07;1.65;;;11.80;61.50;;;;;;5117793;27;20117;-67
2022/04/08 05:32:21;;;;;;;7.50;1.30;;;11.80;61.90;;;;;;5116355;27;20180;-68
2022/04/08 05:34:47;;;;;;;6.50;1.50;;;11.90;61.80;;;;;;5135789;27;20035;-68
2022/04/08 05:37:13;;;;;;;6.38;1.40;;;11.90;61.70;;;;;;5135828;27;20030;-68
2022/04/08 05:39:39;;;;;;;7.53;1.50;;;11.90;61.40;;;;;;5128263;27;20076;-68
2022/04/08 05:42:05;;;;;;;7.28;1.58;;;12.00;61.70;;;;;;5115386;28;20107;-68
2022/04/08 05:44:31;;;;;;;8.15;1.50;;;12.00;61.10;;;;;;5097126;28;20028;-68
2022/04/08 05:47:00;;;;;;;7.68;1.60;;;12.00;60.90;;;;;;5097016;28;20028;-68
2022/04/08 05:49:26;;;;;;;6.57;1.83;;;12.10;60.90;;;;;;5115308;28;20023;-68
2022/04/08 05:51:52;;;;;;;7.78;1.58;;;12.10;60.90;;;;;;5096805;28;20046;-68
2022/04/08 05:54:18;;;;;;;6.43;1.23;;;12.10;60.60;;;;;;5113675;28;20035;-69
2022/04/08 05:56:43;;;;;;;8.75;1.92;;;12.10;60.90;;;;;;5115270;28;20031;-69
2022/04/08 05:59:11;;;;;;;3.33;1.30;;;12.20;61.30;;;;;;5113909;28;20096;-69
2022/04/08 06:01:38;;;;;;;6.78;1.20;;;12.30;61.70;;;;;;5096893;28;20071;-69
2022/04/08 06:04:04;;;;;;;7.30;2.03;;;12.40;62.20;;;;;;5094712;28;20043;-68
2022/04/08 06:06:30;;;;;;;5.65;1.55;;;12.50;62.10;;;;;;5104948;28;20035;-69
2022/04/08 06:08:55;;;;;;;8.80;2.25;;;12.50;61.90;;;;;;5114562;28;20027;-70
2022/04/08 06:11:23;;;;;;;11.55;1.83;;;12.50;61.60;;;;;;5096700;28;20031;-69
2022/04/08 06:13:49;;;;;;;7.40;1.50;;;12.60;61.80;;;;;;5096415;28;20035;-70
2022/04/08 06:16:15;;;;;;;7.15;1.40;;;12.70;61.60;;;;;;5114816;28;20069;-70
2022/04/08 06:18:41;;;;;;;7.75;1.52;;;12.70;61.50;;;;;;5114932;28;20100;-69
2022/04/08 06:21:07;;;;;;;8.73;1.98;;;12.70;61.30;;;;;;5114862;28;20173;-70
2022/04/08 06:23:33;;;;;;;7.90;1.77;;;12.80;60.40;;;;;;5114635;28;20031;-70
2022/04/08 06:25:58;;;;;;;6.82;1.95;;;12.80;60.50;;;;;;5114226;28;20030;-69
2022/04/08 06:28:24;;;;;;;4.80;1.48;;;13.00;60.90;;;;;;5114771;28;20035;-69
2022/04/08 06:30:50;;;;;;;6.35;1.60;;;13.00;60.60;;;;;;5096245;28;20027;-70
2022/04/08 06:33:16;;;;;;;3.08;1.38;;;13.10;60.30;;;;;;5113657;28;20043;-70
2022/04/08 06:35:45;;;;;;;7.10;1.45;;;13.20;60.50;;;;;;5096036;28;20031;-70
2022/04/08 06:38:11;;;;;;;6.10;2.00;;;13.30;59.60;;;;;;5096223;28;20031;-70
2022/04/08 06:40:43;;;;;;;10.93;1.42;;;13.40;60.00;;;;;;5114538;28;20494;-70
2022/04/08 06:43:09;;;;;;;5.13;1.90;;;13.60;59.70;;;;;;5114240;28;20058;-70
2022/04/08 06:45:36;;;;;;;12.90;1.90;;;13.70;58.80;;;;;;5095960;28;20079;-69
2022/04/08 06:48:02;;;;;;;8.40;1.58;;;13.80;58.90;;;;;;5095756;28;20031;-70
2022/04/08 06:50:29;;;;;;;11.48;1.85;;;13.80;57.80;;;;;;5114228;28;20031;-70
2022/04/08 06:52:59;;;;;;;8.10;1.75;;;13.90;57.80;;;;;;5113055;28;20449;-70
2022/04/08 06:55:25;;;;;;;9.63;1.60;;;13.90;58.10;;;;;;5096042;28;20181;-70
2022/04/08 06:57:51;;;;;;;5.18;1.20;;;13.90;56.40;;;;;;5095690;28;20019;-70
2022/04/08 07:00:17;;;;;;;5.93;1.50;;;13.90;55.80;;;;;;5113750;28;20038;-70
2022/04/08 07:02:43;;;;;;;4.05;1.02;;;13.90;56.00;;;;;;5095152;28;20027;-71
2022/04/08 07:05:09;;;;;;;7.03;1.52;;;13.90;55.90;;;;;;5113312;28;20065;-70
2022/04/08 07:07:37;;;;;;;8.68;1.80;;;13.90;56.70;;;;;;5114114;28;20055;-72
2022/04/08 07:10:05;;;;;;;5.38;1.45;;;14.00;57.50;;;;;;5114009;28;20110;-71
2022/04/08 07:12:31;;;;;;;8.02;1.40;;;14.10;57.00;;;;;;5095498;28;20172;-71
2022/04/08 07:14:56;;;;;;;6.53;1.67;;;14.10;56.20;;;;;;5095618;28;20032;-70
2022/04/08 07:17:33;;;;;;;6.88;1.40;;;14.20;56.50;;;;;;5113370;28;20024;-70
2022/04/08 07:19:59;;;;;;;4.95;1.52;;;14.30;55.70;;;;;;5111838;28;20028;-71
2022/04/08 07:22:25;;;;;;;7.68;1.58;;;14.40;56.50;;;;;;5094854;28;20030;-72
2022/04/08 07:24:52;;;;;;;13.25;1.52;;;14.50;56.80;;;;;;5094738;28;20041;-71
2022/04/08 07:27:20;;;;;;;14.48;1.92;;;14.60;55.80;;;;;;5095313;28;20034;-71
2022/04/08 07:29:47;;;;;;;5.97;1.40;;;14.70;55.50;;;;;;5095206;28;20020;-70
2022/04/08 07:32:20;;;;;;;10.00;1.55;;;14.70;55.40;;;;;;5113209;28;20024;-70
2022/04/08 07:34:45;;;;;;;7.28;1.73;;;14.80;56.10;;;;;;5095023;28;20032;-70
2022/04/08 07:37:11;;;;;;;9.02;1.52;;;14.80;55.10;;;;;;5095197;28;20107;-70
2022/04/08 07:39:42;;;;;;;6.60;1.60;;;14.90;55.80;;;;;;5102056;28;20096;-71
2022/04/08 07:42:09;;;;;;;16.13;1.95;;;15.00;54.50;;;;;;5134108;28;20089;-70
2022/04/08 07:44:35;;;;;;;5.22;1.48;;;15.10;55.60;;;;;;5133949;28;20026;-72
2022/04/08 07:47:01;;;;;;;5.97;1.25;;;15.20;55.50;;;;;;5115307;28;20035;-71
2022/04/08 07:49:27;;;;;;;5.82;1.67;;;15.20;53.70;;;;;;5133446;28;20023;-72
2022/04/08 07:51:53;;;;;;;12.50;1.85;;;15.20;53.60;;;;;;5115198;28;20396;-70
2022/04/08 07:54:19;;;;;;;6.80;1.35;;;15.20;52.80;;;;;;5132638;28;20115;-71
2022/04/08 07:56:44;;;;;;;3.42;1.00;;;15.20;54.00;;;;;;5115130;28;20028;-71
2022/04/08 07:59:10;;;;;;;5.63;1.05;;;15.30;54.90;;;;;;5133456;28;20019;-71
2022/04/08 08:01:36;;;;;;;4.80;0.98;;;15.30;55.10;;;;;;5115432;28;20069;-74
2022/04/08 08:04:02;;;;;;;5.25;1.38;;;15.40;55.50;;;;;;5114859;28;20027;-71
2022/04/08 08:06:28;;;;;;;5.88;1.15;;;15.60;54.40;;;;;;5114533;28;20133;-71
2022/04/08 08:08:55;;;;;;;8.73;1.15;;;15.60;53.00;;;;;;5115007;28;20525;-71
2022/04/08 08:11:21;;;;;;;5.43;1.17;;;15.70;54.50;;;;;;5115324;28;20076;-71
2022/04/08 08:13:47;;;;;;;7.38;1.13;;;15.70;52.80;;;;;;5130978;28;20031;-71
2022/04/08 08:16:13;;;;;;;6.13;1.10;;;15.70;52.30;;;;;;5133740;28;20481;-72
2022/04/08 08:18:39;;;;;;;4.90;0.93;;;15.70;51.60;;;;;;5133019;28;20494;-71
2022/04/08 08:21:05;;;;;;;6.95;1.25;;;15.70;50.10;;;;;;5133771;28;20034;-72
2022/04/08 08:23:31;;;;;;;4.53;1.08;;;15.60;49.50;;;;;;5133351;28;20025;-73
2022/04/08 08:25:56;;;;;;;5.65;1.05;;;15.50;50.50;;;;;;5133629;28;20098;-72
2022/04/08 08:28:22;;;;;;;4.75;1.10;;;15.50;50.90;;;;;;5114970;27;20019;-72
2022/04/08 08:30:48;;;;;;;4.43;1.00;;;15.40;50.80;;;;;;5135848;27;20038;-72
2022/04/08 08:33:14;;;;;;;3.05;1.10;;;15.50;51.60;;;;;;5117944;27;20616;-72
2022/04/08 08:35:40;;;;;;;5.85;0.70;;;15.50;51.70;;;;;;5108006;28;20465;-72
2022/04/08 08:38:07;;;;;;;5.32;1.00;;;15.50;51.90;;;;;;5108036;28;20039;-73
2022/04/08 08:40:34;;;;;;;4.07;1.08;;;15.50;50.70;;;;;;5117536;27;20065;-72
2022/04/08 08:43:03;;;;;;;4.00;1.42;;;15.50;51.30;;;;;;5136912;27;20375;-72
2022/04/08 08:45:32;;;;;;;5.28;1.00;;;15.40;51.30;;;;;;5117112;27;20050;-73
2022/04/08 08:48:03;;;;;;;3.75;0.90;;;15.40;51.70;;;;;;5134617;27;20379;-73
2022/04/08 08:50:32;;;;;;;5.10;1.08;;;15.40;51.70;;;;;;5110280;28;20059;-73
2022/04/08 08:53:00;;;;;;;4.28;1.15;;;15.30;50.80;;;;;;5115795;27;20039;-73
2022/04/08 08:55:26;;;;;;;6.25;1.08;;;15.30;50.80;;;;;;5118537;27;20031;-73
2022/04/08 08:57:52;;;;;;;3.45;1.38;;;15.20;51.00;;;;;;5141249;27;20134;-72
2022/04/08 09:00:22;;;;;;;6.82;0.68;;;15.20;52.20;;;;;;5118516;27;20102;-72
2022/04/08 09:02:49;;;;;;;5.72;1.27;;;15.20;51.40;;;;;;5117460;27;20482;-72
2022/04/08 09:05:20;;;;;;;1.52;0.73;;;15.30;51.60;;;;;;5115570;27;20029;-71
2022/04/08 09:08:15;;;;;;;5.47;1.15;;;15.40;51.90;;;;;;5118455;27;20027;-71
2022/04/08 09:10:43;;;;;;;4.20;1.20;;;15.60;52.00;;;;;;5112911;27;20069;-71
2022/04/08 09:13:10;;;;;;;3.35;1.20;;;15.80;52.70;;;;;;5115335;27;20033;-71
2022/04/08 09:15:39;;;;;;;6.50;1.20;;;16.10;52.10;;;;;;5131228;27;20027;-68
2022/04/08 09:18:13;;;;;;;4.72;1.10;;;16.30;49.40;;;;;;5118161;27;20454;-68
2022/04/08 09:20:48;;;;;;;6.47;1.08;;;16.50;48.40;;;;;;5134820;27;20058;-66
2022/04/08 09:23:16;;;;;;;5.05;1.38;;;16.70;48.50;;;;;;5131776;27;20107;-66
2022/04/08 09:25:42;;;;;;;2.42;1.13;;;16.80;48.50;;;;;;5138994;27;20031;-66
2022/04/08 09:28:13;;;;;;;5.70;1.08;;;16.90;48.10;;;;;;5137414;27;20109;-68
2022/04/08 09:30:40;;;;;;;5.07;1.15;;;17.00;46.90;;;;;;5157041;27;20014;-67
2022/04/08 09:33:13;;;;;;;5.65;1.48;;;17.10;47.60;;;;;;5133986;27;20371;-64
2022/04/08 09:35:40;;;;;;;4.47;1.30;;;17.10;45.60;;;;;;5116761;27;20034;-65
2022/04/08 09:38:06;;;;;;;8.18;1.20;;;17.20;45.70;;;;;;5134453;27;20023;-64
2022/04/08 09:40:36;;;;;;;6.50;1.48;;;17.20;45.50;;;;;;5115227;27;20082;-66
2022/04/08 09:43:02;;;;;;;4.70;1.10;;;17.20;45.40;;;;;;5097135;28;20036;-66
2022/04/08 09:45:30;;;;;;;3.53;0.93;;;17.20;45.80;;;;;;5097721;27;20028;-65
2022/04/08 09:48:01;;;;;;;7.60;1.60;;;17.30;45.50;;;;;;5136039;27;20026;-66
2022/04/08 09:50:27;;;;;;;2.75;0.80;;;17.30;45.20;;;;;;5134333;27;20019;-66
2022/04/08 09:52:54;;;;;;;2.20;0.93;;;17.30;45.10;;;;;;5117619;27;20155;-65
2022/04/08 09:55:22;;;;;;;5.65;1.00;;;17.40;46.60;;;;;;5136051;27;20465;-67
2022/04/08 09:57:51;;;;;;;4.40;1.13;;;17.50;45.20;;;;;;5117505;27;20042;-65
2022/04/08 10:00:18;;;;;;;2.50;1.15;;;17.50;45.10;;;;;;5135880;27;20027;-65
2022/04/08 10:02:49;;;;;;;3.38;1.00;;;17.50;44.90;;;;;;5115956;27;20023;-65
2022/04/08 10:05:15;;;;;;;2.63;0.90;;;17.50;44.30;;;;;;5115710;27;20450;-65
2022/04/08 10:07:45;;;;;;;5.65;1.77;;;17.50;44.50;;;;;;5117669;27;20498;-65
2022/04/08 10:10:22;;;;;;;3.10;1.38;;;17.50;44.50;;;;;;5113959;28;20024;-65
2022/04/08 10:13:03;;;;;;;5.72;2.20;;;17.60;43.90;;;;;;5109743;28;20035;-65
2022/04/08 10:16:00;;;;;;;5.35;1.52;;;17.60;43.60;;;;;;5125486;27;20129;-66
2022/04/08 10:18:43;;;;;;;12.30;8.20;;;17.70;43.30;;;;;;5134874;27;20026;-64
2022/04/08 10:21:10;;;;;;;4.22;1.35;;;17.80;44.50;;;;;;5119822;27;20500;-64
2022/04/08 10:23:50;;;;;;;6.00;1.17;;;17.90;45.10;;;;;;5134409;27;20409;-64
2022/04/08 10:26:21;;;;;;;2.90;0.90;;;18.10;44.20;;;;;;5096573;28;20054;-64
2022/04/08 10:28:48;;;;;;;3.63;1.70;;;18.20;45.60;;;;;;5113524;28;20106;-65
2022/04/08 10:31:20;;;;;;;7.85;1.83;;;18.30;43.30;;;;;;5116147;27;20485;-64
2022/04/08 10:33:53;;;;;;;3.40;0.90;;;18.40;42.50;;;;;;5116138;27;20066;-64
2022/04/08 10:36:36;;;;;;;5.37;1.10;;;18.40;42.20;;;;;;5129810;27;20024;-65
2022/04/08 10:39:15;;;;;;;4.80;1.10;;;18.30;42.30;;;;;;5106191;27;20273;-63
2022/04/08 10:42:00;;;;;;;6.60;1.17;;;18.40;43.10;;;;;;5115232;27;20513;-64
2022/04/08 10:44:37;;;;;;;10.15;2.20;;;18.40;43.20;;;;;;5108234;27;20153;-65
2022/04/08 10:47:17;;;;;;;3.70;0.82;;;18.30;42.80;;;;;;5126069;27;20115;-64
2022/04/08 10:49:54;;;;;;;4.93;0.90;;;18.40;42.00;;;;;;5107493;28;20030;-65
2022/04/08 10:52:26;;;;;;;5.70;0.95;;;18.40;43.60;;;;;;5114183;27;20061;-65
2022/04/08 10:55:05;;;;;;;3.42;1.10;;;18.50;42.80;;;;;;5113946;27;20598;-66
2022/04/08 10:57:44;;;;;;;5.25;1.17;;;18.70;42.60;;;;;;5100096;27;20032;-64
2022/04/08 11:00:17;;;;;;;3.28;0.98;;;18.80;42.90;;;;;;5114326;27;20077;-66
2022/04/08 11:02:44;;;;;;;3.17;0.40;;;18.80;41.10;;;;;;5132890;27;20034;-66
2022/04/08 11:05:12;;;;;;;2.40;0.68;;;18.70;40.00;;;;;;5130893;27;20454;-67
2022/04/08 11:07:43;;;;;;;3.25;0.70;;;18.70;40.10;;;;;;5106247;27;20027;-65
2022/04/08 11:10:10;;;;;;;2.25;0.70;;;18.60;40.20;;;;;;5114170;27;20027;-64
2022/04/08 11:12:44;;;;;;;2.45;1.20;;;18.60;40.60;;;;;;5134591;27;20031;-65
2022/04/08 11:15:15;;;;;;;2.58;0.75;;;18.60;41.30;;;;;;5120292;27;20110;-64
2022/04/08 11:17:41;;;;;;;4.85;0.95;;;18.60;39.30;;;;;;5114425;27;20053;-64
2022/04/08 11:20:13;;;;;;;1.25;0.60;;;18.50;39.60;;;;;;5113976;27;20015;-67
2022/04/08 11:22:43;;;;;;;2.05;0.65;;;18.50;41.30;;;;;;5115684;27;20054;-65
2022/04/08 11:25:10;;;;;;;1.73;0.80;;;18.60;40.70;;;;;;5133461;27;20122;-67
2022/04/08 11:27:37;;;;;;;2.03;0.43;;;18.70;42.30;;;;;;5125106;27;20030;-69
2022/04/08 11:30:09;;;;;;;1.15;0.60;;;18.80;44.10;;;;;;5132741;27;20031;-70
2022/04/08 11:32:39;;;;;;;1.38;0.63;;;19.00;40.80;;;;;;5120179;28;20111;-69
2022/04/08 11:35:14;;;;;;;2.55;1.05;;;19.00;40.50;;;;;;5131407;28;20026;-69
2022/04/08 11:37:44;;;;;;;0.52;0.50;;;19.00;39.80;;;;;;5115801;28;20530;-69
2022/04/08 11:40:16;;;;;;;2.25;0.55;;;19.00;41.70;;;;;;5115343;28;20055;-69
2022/04/08 11:42:43;;;;;;;3.15;1.17;;;19.10;42.20;;;;;;5115585;28;20035;-69
2022/04/08 11:45:10;;;;;;;2.40;0.80;;;19.20;41.70;;;;;;5115715;28;20023;-69
2022/04/08 11:47:40;;;;;;;1.73;0.70;;;19.30;41.60;;;;;;5115758;28;20356;-70
2022/04/08 11:50:08;;;;;;;2.00;0.70;;;19.30;42.40;;;;;;5134219;28;20410;-69
2022/04/08 11:52:36;;;;;;;0.98;0.60;;;19.40;40.80;;;;;;5115665;28;20485;-69
2022/04/08 11:55:05;;;;;;;3.33;0.60;;;19.50;41.30;;;;;;5133849;28;20048;-69
2022/04/08 11:57:33;;;;;;;2.00;0.52;;;19.60;42.70;;;;;;5115721;28;20023;-70
2022/04/08 12:00:08;;;;;;;3.00;0.57;;;19.80;42.10;;;;;;5115665;28;20023;-70
2022/04/08 12:02:35;;;;;;;3.88;1.00;;;19.90;42.40;;;;;;5133246;28;20481;-69
2022/04/08 12:05:02;;;;;;;10.07;1.42;;;20.00;41.50;;;;;;5137073;27;20034;-68
2022/04/08 12:07:30;;;;;;;3.67;1.10;;;20.20;40.90;;;;;;5119548;27;20023;-70
2022/04/08 12:10:00;;;;;;;1.58;0.50;;;20.30;41.80;;;;;;5137703;27;20027;-68
2022/04/08 12:12:28;;;;;;;4.10;0.70;;;20.50;41.40;;;;;;5137923;27;20031;-69
2022/04/08 12:14:55;;;;;;;1.70;0.77;;;20.60;39.90;;;;;;5119176;27;20032;-68
2022/04/08 12:17:21;;;;;;;3.60;0.80;;;20.60;40.70;;;;;;5119332;27;20424;-68
2022/04/08 12:19:53;;;;;;;1.90;0.70;;;20.70;40.40;;;;;;5119313;27;20054;-68
2022/04/08 12:22:21;;;;;;;1.17;0.60;;;20.70;39.20;;;;;;5137685;27;20031;-69
2022/04/08 12:24:49;;;;;;;1.75;0.70;;;20.70;39.30;;;;;;5119403;27;20378;-68
2022/04/08 12:27:22;;;;;;;1.23;0.45;;;20.70;38.30;;;;;;5119220;27;20052;-67
2022/04/08 12:30:01;;;;;;;1.83;0.77;;;20.70;38.30;;;;;;5137994;27;20072;-70
2022/04/08 12:32:43;;;;;;;1.55;0.60;;;20.60;38.40;;;;;;5136385;27;20029;-70
2022/04/08 12:35:11;;;;;;;3.67;1.10;;;20.50;39.00;;;;;;5119191;27;20027;-68
2022/04/08 12:37:38;;;;;;;0.70;0.52;;;20.50;39.00;;;;;;5137768;27;20035;-68
2022/04/08 12:40:07;;;;;;;2.67;0.73;;;20.40;39.00;;;;;;5118889;27;20054;-68
2022/04/08 12:42:38;;;;;;;1.83;0.70;;;20.30;39.00;;;;;;5137015;27;20041;-68
2022/04/08 12:45:05;;;;;;;1.40;0.73;;;20.20;39.00;;;;;;5118412;27;20028;-68
2022/04/08 12:47:31;;;;;;;2.00;0.77;;;20.10;38.80;;;;;;5137208;27;20428;-68
2022/04/08 12:49:57;;;;;;;1.98;0.95;;;19.90;38.90;;;;;;5118599;27;20023;-69